createdAt,value
2018-06-25T00:00:45.078Z,14.1
2018-06-25T00:02:07.490Z,14.1
2018-06-25T00:03:34.896Z,14.1
2018-06-25T00:04:59.780Z,14.1
2018-06-25T00:06:27.198Z,14.1
2018-06-25T00:07:47.035Z,14.1
2018-06-25T00:09:06.925Z,14.1
2018-06-25T00:10:26.752Z,14.2
2018-06-25T00:11:46.581Z,14.2
2018-06-25T00:13:14.025Z,14.1
2018-06-25T00:14:43.991Z,14.1
2018-06-25T00:16:03.892Z,14.1
2018-06-25T00:17:26.247Z,14.1
2018-06-25T00:18:51.138Z,14.1
2018-06-25T00:20:13.562Z,14.2
2018-06-25T00:21:46.024Z,14.2
2018-06-25T00:23:05.847Z,14.2
2018-06-25T00:24:28.270Z,14.2
2018-06-25T00:25:50.619Z,14.2
2018-06-25T00:27:15.543Z,14.1
2018-06-25T00:28:37.903Z,14.1
2018-06-25T00:30:00.267Z,14.1
2018-06-25T00:31:20.092Z,14
2018-06-25T00:32:39.914Z,14.1
2018-06-25T00:34:04.829Z,14.1
2018-06-25T00:35:39.873Z,14.1
2018-06-25T00:36:59.701Z,14
2018-06-25T00:38:27.128Z,14.1
2018-06-25T00:39:52.069Z,14.1
2018-06-25T00:41:14.429Z,14
2018-06-25T00:42:39.317Z,14.1
2018-06-25T00:43:59.202Z,14
2018-06-25T00:45:19.080Z,14
2018-06-25T00:46:38.933Z,14.1
2018-06-25T00:47:58.809Z,14
2018-06-25T00:49:18.668Z,13.9
2018-06-25T00:50:38.542Z,13.8
2018-06-25T00:52:05.961Z,13.9
2018-06-25T00:53:30.862Z,13.9
2018-06-25T00:54:50.688Z,13.9
2018-06-25T00:56:18.136Z,13.9
2018-06-25T00:57:37.960Z,13.9
2018-06-25T00:58:57.812Z,13.9
2018-06-25T01:00:17.637Z,14
2018-06-25T01:01:39.998Z,13.9
2018-06-25T01:03:07.422Z,13.9
2018-06-25T01:04:29.779Z,13.8
2018-06-25T01:05:49.601Z,13.8
2018-06-25T01:07:09.444Z,13.8
2018-06-25T01:08:34.322Z,13.8
2018-06-25T01:09:54.151Z,13.7
2018-06-25T01:11:16.503Z,13.7
2018-06-25T01:12:41.381Z,13.6
2018-06-25T01:14:01.240Z,13.6
2018-06-25T01:15:21.060Z,13.3
2018-06-25T01:16:40.881Z,13.2
2018-06-25T01:18:00.712Z,13.2
2018-06-25T01:19:20.542Z,13.1
2018-06-25T01:20:40.369Z,13.1
2018-06-25T01:22:17.953Z,12.7
2018-06-25T01:23:42.901Z,12.7
2018-06-25T01:25:10.340Z,12.7
2018-06-25T01:26:30.209Z,12.7
2018-06-25T01:27:57.673Z,12.7
2018-06-25T01:29:17.504Z,12.7
2018-06-25T01:30:39.880Z,12.9
2018-06-25T01:32:04.771Z,12.9
2018-06-25T01:33:29.670Z,12.8
2018-06-25T01:34:52.060Z,12.8
2018-06-25T01:36:14.447Z,12.8
2018-06-25T01:37:34.273Z,12.9
2018-06-25T01:38:54.146Z,12.8
2018-06-25T01:40:16.533Z,12.9
2018-06-25T01:41:36.403Z,13
2018-06-25T01:42:56.235Z,13
2018-06-25T01:44:26.188Z,12.9
2018-06-25T01:45:53.657Z,13
2018-06-25T01:47:13.518Z,13
2018-06-25T01:48:38.470Z,13
2018-06-25T01:50:00.832Z,12.9
2018-06-25T01:51:20.710Z,12.9
2018-06-25T01:52:45.625Z,12.9
2018-06-25T01:54:05.448Z,13.1
2018-06-25T01:55:27.813Z,13
2018-06-25T01:56:50.225Z,12.8
2018-06-25T01:58:10.061Z,12.8
2018-06-25T01:59:34.956Z,12.9
2018-06-25T02:00:54.843Z,12.9
2018-06-25T02:02:17.196Z,12.9
2018-06-25T02:03:37.040Z,13
2018-06-25T02:04:56.868Z,13.1
2018-06-25T02:06:19.222Z,13.1
2018-06-25T02:07:39.074Z,13
2018-06-25T02:08:58.898Z,13.2
2018-06-25T02:10:18.734Z,13.1
2018-06-25T02:11:38.634Z,13.1
2018-06-25T02:12:58.547Z,13.1
2018-06-25T02:14:18.455Z,13.1
2018-06-25T02:15:38.335Z,13.1
2018-06-25T02:16:58.193Z,13.1
2018-06-25T02:18:20.544Z,13
2018-06-25T02:19:40.378Z,13
2018-06-25T02:21:02.805Z,13
2018-06-25T02:22:22.680Z,13
2018-06-25T02:23:42.553Z,13
2018-06-25T02:25:10.045Z,13
2018-06-25T02:26:32.409Z,13
2018-06-25T02:27:52.289Z,13.1
2018-06-25T02:29:12.161Z,13.1
2018-06-25T02:30:49.707Z,13.1
2018-06-25T02:32:17.179Z,13
2018-06-25T02:33:37.014Z,13.1
2018-06-25T02:35:06.959Z,13.3
2018-06-25T02:36:29.325Z,13
2018-06-25T02:37:51.684Z,13
2018-06-25T02:39:16.603Z,12.8
2018-06-25T02:40:36.434Z,12.9
2018-06-25T02:41:58.851Z,12.5
2018-06-25T02:43:18.675Z,12.5
2018-06-25T02:44:41.023Z,12.4
2018-06-25T02:46:03.431Z,12
2018-06-25T02:47:23.335Z,12
2018-06-25T02:48:53.313Z,11.9
2018-06-25T02:50:15.660Z,11.9
2018-06-25T02:51:40.538Z,12.8
2018-06-25T02:53:02.960Z,12.9
2018-06-25T02:54:22.943Z,12.8
2018-06-25T02:55:45.295Z,13.1
2018-06-25T02:57:12.804Z,13.4
2018-06-25T02:58:32.672Z,13.2
2018-06-25T03:00:10.212Z,13.2
2018-06-25T03:01:30.065Z,12.8
2018-06-25T03:02:54.951Z,12.8
2018-06-25T03:04:14.809Z,12.7
2018-06-25T03:05:34.657Z,12.7
2018-06-25T03:07:22.310Z,12.6
2018-06-25T03:08:42.196Z,12.8
2018-06-25T03:10:04.566Z,12.7
2018-06-25T03:11:31.997Z,12.9
2018-06-25T03:12:54.411Z,12.9
2018-06-25T03:14:14.239Z,13.5
2018-06-25T03:15:41.660Z,13.5
2018-06-25T03:17:01.493Z,13.6
2018-06-25T03:18:21.317Z,13.6
2018-06-25T03:19:41.173Z,13.6
2018-06-25T03:21:08.618Z,13.6
2018-06-25T03:22:28.484Z,13.6
2018-06-25T03:23:55.900Z,13.6
2018-06-25T03:25:18.303Z,13.6
2018-06-25T03:26:38.167Z,13.6
2018-06-25T03:28:00.516Z,13.6
2018-06-25T03:29:20.352Z,13.6
2018-06-25T03:30:40.174Z,13.5
2018-06-25T03:31:59.998Z,13.5
2018-06-25T03:33:22.382Z,13.5
2018-06-25T03:34:42.230Z,13.5
2018-06-25T03:36:09.703Z,13.5
2018-06-25T03:37:32.071Z,13.5
2018-06-25T03:38:54.425Z,13.5
2018-06-25T03:40:16.781Z,13.5
2018-06-25T03:41:49.254Z,13.5
2018-06-25T03:43:14.186Z,13.5
2018-06-25T03:44:36.579Z,13.4
2018-06-25T03:45:58.931Z,13.4
2018-06-25T03:47:21.282Z,13.4
2018-06-25T03:48:41.140Z,13.4
2018-06-25T03:50:00.983Z,13.4
2018-06-25T03:51:23.348Z,13.4
2018-06-25T03:52:50.819Z,13.4
2018-06-25T03:54:15.699Z,13.4
2018-06-25T03:55:38.121Z,13.4
2018-06-25T03:56:57.981Z,13.4
2018-06-25T03:58:35.602Z,13.5
2018-06-25T03:59:55.426Z,13.5
2018-06-25T04:01:15.250Z,13.5
2018-06-25T04:02:37.660Z,13.5
2018-06-25T04:03:57.514Z,13.5
2018-06-25T04:05:22.424Z,13.4
2018-06-25T04:06:42.260Z,13.5
2018-06-25T04:08:17.340Z,13.6
2018-06-25T04:09:52.422Z,13.6
2018-06-25T04:11:12.271Z,13.6
2018-06-25T04:12:32.113Z,13.6
2018-06-25T04:13:57.066Z,13.8
2018-06-25T04:15:16.941Z,13.5
2018-06-25T04:16:36.827Z,13.5
2018-06-25T04:17:56.658Z,13.6
2018-06-25T04:19:16.528Z,13.6
2018-06-25T04:20:38.949Z,13.6
2018-06-25T04:22:08.954Z,13.5
2018-06-25T04:23:28.784Z,13.6
2018-06-25T04:24:51.172Z,13.6
2018-06-25T04:26:16.057Z,13.6
2018-06-25T04:27:43.474Z,13.5
2018-06-25T04:29:05.858Z,13.5
2018-06-25T04:30:25.696Z,13.5
2018-06-25T04:31:45.525Z,13.5
2018-06-25T04:33:07.923Z,13.5
2018-06-25T04:34:32.840Z,13.5
2018-06-25T04:35:52.747Z,13.5
2018-06-25T04:37:15.101Z,13.5
2018-06-25T04:38:34.976Z,13.5
2018-06-25T04:39:54.838Z,13.6
2018-06-25T04:41:14.660Z,13.5
2018-06-25T04:42:34.509Z,13.6
2018-06-25T04:43:54.340Z,13.6
2018-06-25T04:45:16.760Z,13.6
2018-06-25T04:46:49.275Z,13.7
2018-06-25T04:48:11.636Z,13.6
2018-06-25T04:49:31.487Z,13.5
2018-06-25T04:50:51.312Z,13.6
2018-06-25T04:52:26.334Z,13.6
2018-06-25T04:53:46.211Z,13.7
2018-06-25T04:55:11.128Z,13.6
2018-06-25T04:56:30.970Z,13.6
2018-06-25T04:58:00.919Z,13.6
2018-06-25T04:59:20.752Z,13.6
2018-06-25T05:00:43.160Z,13.6
2018-06-25T05:02:13.111Z,13.4
2018-06-25T05:03:32.960Z,13.2
2018-06-25T05:04:55.315Z,13.2
2018-06-25T05:06:15.143Z,13.1
2018-06-25T05:07:37.528Z,13.2
2018-06-25T05:08:59.880Z,13.2
2018-06-25T05:10:19.704Z,13.1
2018-06-25T05:11:44.640Z,13.1
2018-06-25T05:13:07.071Z,13.1
2018-06-25T05:14:29.427Z,13.2
2018-06-25T05:15:51.831Z,13.1
2018-06-25T05:17:11.723Z,13.1
2018-06-25T05:18:31.546Z,13.2
2018-06-25T05:19:51.387Z,13.1
2018-06-25T05:21:18.861Z,13.3
2018-06-25T05:22:41.226Z,13.2
2018-06-25T05:24:11.247Z,13.3
2018-06-25T05:25:31.079Z,13.3
2018-06-25T05:26:56.001Z,13.4
2018-06-25T05:28:15.866Z,13.5
2018-06-25T05:29:35.690Z,13.4
2018-06-25T05:30:55.559Z,13.4
2018-06-25T05:32:15.388Z,13.3
2018-06-25T05:33:40.337Z,13.3
2018-06-25T05:35:00.160Z,13.2
2018-06-25T05:36:20.001Z,13.3
2018-06-25T05:37:42.427Z,13.1
2018-06-25T05:39:02.277Z,13.1
2018-06-25T05:40:24.634Z,13.1
2018-06-25T05:41:44.489Z,13.1
2018-06-25T05:43:09.439Z,12.9
2018-06-25T05:44:31.832Z,12.1
2018-06-25T05:45:51.701Z,12.1
2018-06-25T05:47:16.636Z,12.7
2018-06-25T05:48:36.458Z,12.7
2018-06-25T05:49:56.281Z,12.8
2018-06-25T05:51:21.181Z,12.7
2018-06-25T05:52:53.652Z,12.8
2018-06-25T05:54:13.535Z,12.8
2018-06-25T05:55:46.019Z,12.8
2018-06-25T05:57:05.862Z,12.7
2018-06-25T05:58:28.217Z,12.9
2018-06-25T05:59:58.182Z,12.8
2018-06-25T06:01:18.008Z,12.7
2018-06-25T06:02:40.378Z,12.8
2018-06-25T06:04:07.947Z,13.2
2018-06-25T06:05:27.833Z,13.2
2018-06-25T06:06:47.694Z,13.4
2018-06-25T06:08:07.574Z,13.3
2018-06-25T06:09:29.957Z,13.4
2018-06-25T06:10:49.830Z,13.4
2018-06-25T06:12:09.670Z,13.4
2018-06-25T06:13:34.558Z,13.3
2018-06-25T06:14:54.424Z,13.3
2018-06-25T06:16:14.247Z,13.2
2018-06-25T06:17:34.131Z,13.4
2018-06-25T06:18:56.539Z,13.4
2018-06-25T06:20:16.392Z,13.4
2018-06-25T06:21:36.219Z,13.5
2018-06-25T06:22:58.574Z,13.4
2018-06-25T06:24:18.448Z,13.6
2018-06-25T06:25:38.278Z,13.8
2018-06-25T06:26:58.103Z,13.8
2018-06-25T06:28:17.935Z,13.7
2018-06-25T06:29:45.370Z,13.6
2018-06-25T06:31:22.935Z,13.4
2018-06-25T06:32:42.772Z,13.3
2018-06-25T06:34:02.659Z,13.4
2018-06-25T06:35:27.610Z,13.5
2018-06-25T06:36:47.474Z,13.6
2018-06-25T06:38:25.024Z,13.6
2018-06-25T06:39:47.412Z,13.8
2018-06-25T06:41:07.330Z,13.8
2018-06-25T06:42:34.763Z,13.2
2018-06-25T06:44:02.206Z,14.1
2018-06-25T06:45:22.079Z,13
2018-06-25T06:46:41.999Z,13.5
2018-06-25T06:48:04.345Z,13.5
2018-06-25T06:49:24.192Z,13.5
2018-06-25T06:50:49.136Z,13.7
2018-06-25T06:52:08.960Z,13.7
2018-06-25T06:53:28.793Z,13.7
2018-06-25T06:54:51.164Z,13.6
2018-06-25T06:56:11.036Z,13.6
2018-06-25T06:57:30.910Z,14.4
2018-06-25T06:58:55.802Z,14.4
2018-06-25T07:00:15.681Z,14.4
2018-06-25T07:01:35.507Z,14.4
2018-06-25T07:02:55.333Z,14.5
2018-06-25T07:04:15.218Z,14.4
2018-06-25T07:05:37.608Z,14.4
2018-06-25T07:06:59.996Z,14.5
2018-06-25T07:08:27.443Z,14.5
2018-06-25T07:09:47.331Z,14.5
2018-06-25T07:11:09.713Z,14.5
2018-06-25T07:12:34.657Z,14.3
2018-06-25T07:13:54.512Z,14.5
2018-06-25T07:15:16.887Z,14.5
2018-06-25T07:16:39.239Z,14.6
2018-06-25T07:17:59.140Z,14.6
2018-06-25T07:19:18.970Z,14.6
2018-06-25T07:20:38.870Z,14.5
2018-06-25T07:22:11.376Z,14.6
2018-06-25T07:23:31.223Z,14.6
2018-06-25T07:24:51.061Z,14.6
2018-06-25T07:26:16.020Z,14.5
2018-06-25T07:27:48.505Z,14.5
2018-06-25T07:29:08.366Z,14.5
2018-06-25T07:30:33.360Z,14.5
2018-06-25T07:31:53.197Z,14.5
2018-06-25T07:33:18.107Z,14.6
2018-06-25T07:34:40.466Z,14.6
2018-06-25T07:36:02.876Z,14.6
2018-06-25T07:37:22.759Z,14.2
2018-06-25T07:38:47.654Z,14.5
2018-06-25T07:40:15.071Z,14.6
2018-06-25T07:41:34.974Z,14.6
2018-06-25T07:42:54.809Z,14.6
2018-06-25T07:44:14.628Z,14.6
2018-06-25T07:45:42.118Z,14.5
2018-06-25T07:47:02.012Z,14.5
2018-06-25T07:48:24.466Z,14.7
2018-06-25T07:49:44.297Z,14.7
2018-06-25T07:51:04.123Z,14.8
2018-06-25T07:52:23.961Z,14.9
2018-06-25T07:53:43.820Z,14.9
2018-06-25T07:55:06.186Z,14.8
2018-06-25T07:56:26.080Z,14.7
2018-06-25T07:57:53.534Z,14.8
2018-06-25T07:59:13.380Z,14.8
2018-06-25T08:00:33.226Z,14.9
2018-06-25T08:01:53.060Z,14.9
2018-06-25T08:03:17.938Z,14.8
2018-06-25T08:04:40.312Z,14.9
2018-06-25T08:06:05.197Z,15
2018-06-25T08:07:27.570Z,15
2018-06-25T08:08:47.428Z,15.1
2018-06-25T08:10:07.297Z,15.1
2018-06-25T08:11:27.153Z,15
2018-06-25T08:12:47.020Z,15.1
2018-06-25T08:14:06.873Z,15.1
2018-06-25T08:15:31.822Z,15.2
2018-06-25T08:16:54.191Z,15.2
2018-06-25T08:18:14.077Z,14.9
2018-06-25T08:19:39.021Z,15.4
2018-06-25T08:20:58.896Z,15.4
2018-06-25T08:22:31.412Z,15.6
2018-06-25T08:23:51.300Z,15.5
2018-06-25T08:25:11.177Z,15.3
2018-06-25T08:26:31.011Z,15.4
2018-06-25T08:27:58.484Z,15.5
2018-06-25T08:29:18.301Z,15.4
2018-06-25T08:30:40.651Z,15.5
2018-06-25T08:32:05.586Z,15.5
2018-06-25T08:33:27.938Z,15.6
2018-06-25T08:34:52.830Z,15.6
2018-06-25T08:36:15.187Z,15.7
2018-06-25T08:37:35.042Z,15.6
2018-06-25T08:38:54.891Z,15.7
2018-06-25T08:40:14.762Z,15.7
2018-06-25T08:41:34.671Z,15.7
2018-06-25T08:42:54.497Z,15.7
2018-06-25T08:44:14.375Z,15.7
2018-06-25T08:45:34.211Z,15.3
2018-06-25T08:46:54.083Z,15.7
2018-06-25T08:48:21.573Z,15.7
2018-06-25T08:49:46.521Z,15.7
2018-06-25T08:51:08.876Z,15.7
2018-06-25T08:52:31.261Z,15.8
2018-06-25T08:53:51.149Z,15.8
2018-06-25T08:55:10.968Z,15.9
2018-06-25T08:56:30.835Z,16
2018-06-25T08:57:50.679Z,15.9
2018-06-25T08:59:10.505Z,16
2018-06-25T09:00:32.890Z,16
2018-06-25T09:01:52.736Z,16
2018-06-25T09:03:12.579Z,16.2
2018-06-25T09:04:35.003Z,16.1
2018-06-25T09:06:10.024Z,16.1
2018-06-25T09:07:32.377Z,16.1
2018-06-25T09:08:52.208Z,16.1
2018-06-25T09:10:19.632Z,16.2
2018-06-25T09:11:39.473Z,16.3
2018-06-25T09:12:59.348Z,16.3
2018-06-25T09:14:21.720Z,16.4
2018-06-25T09:15:41.580Z,16.4
2018-06-25T09:17:01.437Z,16.4
2018-06-25T09:18:23.819Z,16.4
2018-06-25T09:19:48.730Z,16.5
2018-06-25T09:21:08.555Z,16.5
2018-06-25T09:22:33.462Z,16.4
2018-06-25T09:23:53.292Z,16.5
2018-06-25T09:25:13.125Z,16.6
2018-06-25T09:26:38.046Z,16.6
2018-06-25T09:27:57.924Z,16.6
2018-06-25T09:29:20.340Z,16.6
2018-06-25T09:30:40.197Z,16.7
2018-06-25T09:32:02.621Z,16.7
2018-06-25T09:33:22.447Z,16.7
2018-06-25T09:34:52.388Z,16.7
2018-06-25T09:36:12.221Z,16.8
2018-06-25T09:37:32.065Z,16.6
2018-06-25T09:38:51.918Z,16.6
2018-06-25T09:40:11.771Z,16.6
2018-06-25T09:41:31.837Z,16.6
2018-06-25T09:42:51.888Z,16.6
2018-06-25T09:44:16.813Z,16.7
2018-06-25T09:45:39.228Z,16.2
2018-06-25T09:46:59.149Z,16.1
2018-06-25T09:48:19.000Z,15.8
2018-06-25T09:49:41.415Z,15.8
2018-06-25T09:51:01.270Z,15.8
2018-06-25T09:52:21.124Z,15.8
2018-06-25T09:53:43.498Z,16
2018-06-25T09:55:05.936Z,16
2018-06-25T09:56:28.401Z,16.2
2018-06-25T09:57:55.893Z,16.1
2018-06-25T09:59:18.289Z,17
2018-06-25T10:00:38.109Z,17
2018-06-25T10:01:57.946Z,17.1
2018-06-25T10:03:20.325Z,16.9
2018-06-25T10:04:42.685Z,16.5
2018-06-25T10:06:02.557Z,16.6
2018-06-25T10:07:22.397Z,16.8
2018-06-25T10:08:42.255Z,17.1
2018-06-25T10:10:02.092Z,17.4
2018-06-25T10:11:21.933Z,17.4
2018-06-25T10:12:46.824Z,17.5
2018-06-25T10:14:06.678Z,17.4
2018-06-25T10:15:31.593Z,17.4
2018-06-25T10:16:51.494Z,17.5
2018-06-25T10:18:11.344Z,17.3
2018-06-25T10:19:31.204Z,17.3
2018-06-25T10:20:51.114Z,17.3
2018-06-25T10:22:13.508Z,17.3
2018-06-25T10:23:35.907Z,17.2
2018-06-25T10:24:55.751Z,17.2
2018-06-25T10:26:15.600Z,17.3
2018-06-25T10:27:38.010Z,17.2
2018-06-25T10:28:57.836Z,17.3
2018-06-25T10:30:20.193Z,17.5
2018-06-25T10:31:40.041Z,17.4
2018-06-25T10:33:02.397Z,17.2
2018-06-25T10:34:22.256Z,17.4
2018-06-25T10:35:42.085Z,17.4
2018-06-25T10:37:01.915Z,17.3
2018-06-25T10:38:21.781Z,17.4
2018-06-25T10:39:46.700Z,17.3
2018-06-25T10:41:06.548Z,17.4
2018-06-25T10:42:26.475Z,17.4
2018-06-25T10:43:46.412Z,17.5
2018-06-25T10:45:06.320Z,17.5
2018-06-25T10:46:26.170Z,17.5
2018-06-25T10:47:46.039Z,17.5
2018-06-25T10:49:08.391Z,17.6
2018-06-25T10:50:30.802Z,17.6
2018-06-25T10:51:53.166Z,17.5
2018-06-25T10:53:12.988Z,17.6
2018-06-25T10:54:35.367Z,17.6
2018-06-25T10:55:55.200Z,17.7
2018-06-25T10:57:15.029Z,17.7
2018-06-25T10:58:34.849Z,17.8
2018-06-25T10:59:54.875Z,17.9
2018-06-25T11:01:14.900Z,18
2018-06-25T11:02:34.749Z,17.8
2018-06-25T11:03:54.578Z,18.1
2018-06-25T11:05:14.406Z,18.1
2018-06-25T11:06:34.229Z,18.2
2018-06-25T11:07:56.585Z,18.1
2018-06-25T11:09:23.998Z,18.2
2018-06-25T11:10:43.823Z,18.2
2018-06-25T11:12:18.817Z,18.2
2018-06-25T11:13:38.671Z,18.2
2018-06-25T11:15:01.068Z,18.3
2018-06-25T11:16:20.926Z,18.3
2018-06-25T11:17:43.287Z,18.3
2018-06-25T11:19:05.726Z,18.3
2018-06-25T11:20:25.574Z,18.2
2018-06-25T11:21:45.403Z,18.3
2018-06-25T11:23:10.309Z,18.3
2018-06-25T11:24:35.248Z,18.3
2018-06-25T11:25:57.620Z,18.3
2018-06-25T11:27:17.580Z,18.3
2018-06-25T11:28:37.420Z,18.3
2018-06-25T11:29:57.240Z,18.3
2018-06-25T11:31:22.153Z,18.3
2018-06-25T11:32:44.516Z,18.3
2018-06-25T11:34:04.345Z,18.3
2018-06-25T11:35:26.711Z,18.4
2018-06-25T11:36:46.590Z,18.3
2018-06-25T11:38:11.510Z,18.3
2018-06-25T11:39:33.882Z,18.3
2018-06-25T11:40:53.744Z,18.1
2018-06-25T11:42:13.574Z,18.2
2018-06-25T11:43:33.396Z,18.3
2018-06-25T11:44:55.793Z,18.3
2018-06-25T11:46:15.696Z,18.3
2018-06-25T11:47:35.606Z,18.3
2018-06-25T11:49:13.169Z,18.3
2018-06-25T11:50:33.026Z,18.3
2018-06-25T11:51:52.847Z,18.3
2018-06-25T11:53:15.222Z,18.3
2018-06-25T11:54:42.718Z,18.3
2018-06-25T11:56:02.602Z,18.5
2018-06-25T11:57:24.961Z,18.5
2018-06-25T11:58:49.896Z,18.6
2018-06-25T12:00:09.799Z,18.7
2018-06-25T12:01:34.728Z,18.6
2018-06-25T12:02:54.698Z,18.7
2018-06-25T12:04:14.582Z,18.8
2018-06-25T12:05:36.933Z,18.9
2018-06-25T12:06:56.784Z,18.9
2018-06-25T12:08:21.676Z,19
2018-06-25T12:09:41.507Z,19.1
2018-06-25T12:11:01.384Z,19.2
2018-06-25T12:12:21.312Z,19.2
2018-06-25T12:13:41.228Z,19.2
2018-06-25T12:15:06.149Z,19.3
2018-06-25T12:16:28.551Z,19.5
2018-06-25T12:17:56.051Z,19.4
2018-06-25T12:19:18.457Z,19
2018-06-25T12:20:38.279Z,20
2018-06-25T12:21:58.110Z,20.2
2018-06-25T12:23:17.948Z,20.4
2018-06-25T12:24:37.779Z,20.5
2018-06-25T12:25:57.601Z,20.6
2018-06-25T12:27:17.445Z,20.6
2018-06-25T12:28:42.383Z,20.6
2018-06-25T12:30:02.214Z,20.6
2018-06-25T12:31:24.674Z,20.6
2018-06-25T12:32:47.069Z,20.6
2018-06-25T12:34:09.444Z,20.6
2018-06-25T12:35:29.275Z,20.5
2018-06-25T12:36:49.104Z,20.5
2018-06-25T12:38:11.464Z,20.6
2018-06-25T12:39:33.820Z,20.8
2018-06-25T12:40:53.662Z,20.9
2018-06-25T12:42:16.065Z,20.8
2018-06-25T12:43:46.032Z,20.9
2018-06-25T12:45:05.879Z,20.9
2018-06-25T12:46:35.868Z,21
2018-06-25T12:47:55.716Z,21.1
2018-06-25T12:49:15.572Z,20.9
2018-06-25T12:50:35.503Z,21.1
2018-06-25T12:51:55.360Z,20.9
2018-06-25T12:53:15.226Z,21.2
2018-06-25T12:54:40.138Z,21.2
2018-06-25T12:55:59.964Z,21.3
2018-06-25T12:57:19.860Z,21.2
2018-06-25T12:58:42.222Z,21.4
2018-06-25T13:00:02.119Z,21.7
2018-06-25T13:01:22.068Z,21.9
2018-06-25T13:02:44.459Z,22
2018-06-25T13:04:09.391Z,21.8
2018-06-25T13:05:34.323Z,21.7
2018-06-25T13:06:54.158Z,19.9
2018-06-25T13:08:13.993Z,19.7
2018-06-25T13:09:33.871Z,19.9
2018-06-25T13:10:53.712Z,19.9
2018-06-25T13:12:13.589Z,20.3
2018-06-25T13:13:33.417Z,20.3
2018-06-25T13:14:55.844Z,20.1
2018-06-25T13:16:18.245Z,20.5
2018-06-25T13:17:38.077Z,20.3
2018-06-25T13:19:03.003Z,21
2018-06-25T13:20:22.882Z,21.2
2018-06-25T13:21:42.773Z,21
2018-06-25T13:23:05.210Z,21.1
2018-06-25T13:24:35.185Z,21
2018-06-25T13:25:55.101Z,21.3
2018-06-25T13:27:15.050Z,21.3
2018-06-25T13:28:37.423Z,21.5
2018-06-25T13:29:57.256Z,21.8
2018-06-25T13:31:17.276Z,22.4
2018-06-25T13:32:39.849Z,23.4
2018-06-25T13:34:02.244Z,23.6
2018-06-25T13:35:22.094Z,23.7
2018-06-25T13:36:41.937Z,24
2018-06-25T13:38:11.938Z,24.1
2018-06-25T13:39:31.826Z,23.9
2018-06-25T13:40:51.678Z,23.7
2018-06-25T13:42:11.507Z,23.9
2018-06-25T13:43:31.385Z,23.5
2018-06-25T13:44:51.207Z,23.5
2018-06-25T13:46:13.562Z,23.5
2018-06-25T13:47:46.049Z,23.7
2018-06-25T13:49:08.401Z,23.9
2018-06-25T13:50:28.219Z,23.8
2018-06-25T13:51:53.148Z,24
2018-06-25T13:53:15.594Z,23.8
2018-06-25T13:54:37.967Z,23.9
2018-06-25T13:56:10.474Z,23.9
2018-06-25T13:57:32.875Z,23.8
2018-06-25T13:58:57.788Z,23.7
2018-06-25T14:00:17.662Z,23.6
2018-06-25T14:01:40.056Z,23.6
2018-06-25T14:03:04.995Z,23.5
2018-06-25T14:04:24.849Z,23.4
2018-06-25T14:05:47.206Z,23.4
2018-06-25T14:07:07.064Z,23.4
2018-06-25T14:08:26.922Z,23.6
2018-06-25T14:09:59.398Z,23.5
2018-06-25T14:11:24.335Z,23.6
2018-06-25T14:12:54.281Z,23.7
2018-06-25T14:14:14.117Z,23.5
2018-06-25T14:15:33.958Z,23.4
2018-06-25T14:16:53.972Z,23.4
2018-06-25T14:18:21.478Z,23.6
2018-06-25T14:19:48.944Z,23.8
2018-06-25T14:21:13.884Z,23.9
2018-06-25T14:22:36.286Z,23.8
2018-06-25T14:23:56.118Z,23.9
2018-06-25T14:25:20.997Z,24
2018-06-25T14:26:45.899Z,23.9
2018-06-25T14:28:10.846Z,23.8
2018-06-25T14:29:35.809Z,23.7
2018-06-25T14:30:55.664Z,23.5
2018-06-25T14:32:15.523Z,23.5
2018-06-25T14:33:35.470Z,23.5
2018-06-25T14:34:57.832Z,23.5
2018-06-25T14:36:20.260Z,23.4
2018-06-25T14:37:45.190Z,23.4
2018-06-25T14:39:05.056Z,23.5
2018-06-25T14:40:24.924Z,23.7
2018-06-25T14:41:49.899Z,24.1
2018-06-25T14:43:19.912Z,23.8
2018-06-25T14:44:39.804Z,23.7
2018-06-25T14:46:02.165Z,23.4
2018-06-25T14:47:39.781Z,23.2
2018-06-25T14:48:59.618Z,23.2
2018-06-25T14:50:19.471Z,23.3
2018-06-25T14:51:44.407Z,23.4
2018-06-25T14:53:06.792Z,23.4
2018-06-25T14:54:31.673Z,23.1
2018-06-25T14:55:51.499Z,22.9
2018-06-25T14:57:11.330Z,23.2
2018-06-25T14:58:31.155Z,23.7
2018-06-25T15:00:01.160Z,23.8
2018-06-25T15:01:23.574Z,23.5
2018-06-25T15:02:58.592Z,23.2
2018-06-25T15:04:18.453Z,22.9
2018-06-25T15:05:43.352Z,22.7
2018-06-25T15:07:03.225Z,22.7
2018-06-25T15:08:23.072Z,22.6
2018-06-25T15:09:45.485Z,22.5
2018-06-25T15:11:10.443Z,22.4
2018-06-25T15:12:30.329Z,22.4
2018-06-25T15:13:55.291Z,22.3
2018-06-25T15:15:15.147Z,22.2
2018-06-25T15:16:35.010Z,22.2
2018-06-25T15:17:54.929Z,22.2
2018-06-25T15:19:14.841Z,22.1
2018-06-25T15:20:34.714Z,22.1
2018-06-25T15:21:57.125Z,22.1
2018-06-25T15:23:22.051Z,22
2018-06-25T15:24:41.921Z,22
2018-06-25T15:26:01.814Z,21.9
2018-06-25T15:27:24.193Z,21.9
2018-06-25T15:28:46.560Z,21.8
2018-06-25T15:30:16.523Z,21.7
2018-06-25T15:31:36.405Z,21.7
2018-06-25T15:32:56.242Z,21.6
2018-06-25T15:34:18.592Z,21.6
2018-06-25T15:35:38.453Z,21.6
2018-06-25T15:37:03.362Z,21.6
2018-06-25T15:38:28.295Z,21.6
2018-06-25T15:39:48.137Z,21.6
2018-06-25T15:41:07.961Z,21.5
2018-06-25T15:42:30.395Z,21.5
2018-06-25T15:44:05.429Z,21.5
2018-06-25T15:45:32.884Z,21.6
2018-06-25T15:46:55.262Z,21.5
2018-06-25T15:48:17.658Z,21.5
2018-06-25T15:49:47.610Z,21.5
2018-06-25T15:51:12.539Z,21.4
2018-06-25T15:52:37.425Z,21.5
2018-06-25T15:53:57.413Z,21.4
2018-06-25T15:55:19.876Z,21.3
2018-06-25T15:56:39.766Z,21.3
2018-06-25T15:57:59.662Z,21.2
2018-06-25T15:59:22.019Z,21.3
2018-06-25T16:00:41.866Z,21.3
2018-06-25T16:02:06.760Z,21.3
2018-06-25T16:03:39.236Z,21.3
2018-06-25T16:05:06.691Z,21.3
2018-06-25T16:06:26.516Z,21.3
2018-06-25T16:07:46.345Z,21.2
2018-06-25T16:09:08.723Z,21.3
2018-06-25T16:10:28.574Z,21.2
2018-06-25T16:11:48.405Z,21.2
2018-06-25T16:13:08.238Z,21.2
2018-06-25T16:14:28.289Z,21.2
2018-06-25T16:15:48.270Z,21.1
2018-06-25T16:17:08.098Z,21.1
2018-06-25T16:18:35.574Z,21.1
2018-06-25T16:19:55.438Z,21
2018-06-25T16:21:17.797Z,21
2018-06-25T16:22:37.628Z,21.1
2018-06-25T16:23:57.457Z,21
2018-06-25T16:25:22.384Z,20.9
2018-06-25T16:26:42.214Z,20.9
2018-06-25T16:28:02.043Z,20.9
2018-06-25T16:29:24.458Z,20.8
2018-06-25T16:30:44.299Z,20.8
2018-06-25T16:32:04.150Z,20.7
2018-06-25T16:33:24.001Z,20.8
2018-06-25T16:34:43.886Z,20.7
2018-06-25T16:36:03.721Z,20.7
2018-06-25T16:37:33.667Z,20.6
2018-06-25T16:38:53.549Z,20.7
2018-06-25T16:40:13.391Z,20.7
2018-06-25T16:41:33.230Z,20.6
2018-06-25T16:42:53.055Z,20.6
2018-06-25T16:44:22.999Z,20.5
2018-06-25T16:45:47.889Z,20.5
2018-06-25T16:47:12.769Z,20.5
2018-06-25T16:48:32.630Z,20.5
2018-06-25T16:49:57.512Z,20.5
2018-06-25T16:51:19.900Z,20.6
2018-06-25T16:52:39.748Z,20.6
2018-06-25T16:54:04.652Z,20.6
2018-06-25T16:55:29.617Z,20.5
2018-06-25T16:56:54.524Z,20.4
2018-06-25T16:58:19.462Z,20.4
2018-06-25T16:59:41.955Z,20.4
2018-06-25T17:01:06.901Z,20.3
2018-06-25T17:02:29.295Z,20.3
2018-06-25T17:03:49.200Z,20.3
2018-06-25T17:05:09.033Z,20.3
2018-06-25T17:06:33.954Z,20.3
2018-06-25T17:07:56.356Z,20.4
2018-06-25T17:09:16.190Z,20.4
2018-06-25T17:10:36.034Z,20.3
2018-06-25T17:12:03.467Z,20.2
2018-06-25T17:13:23.338Z,20.2
2018-06-25T17:14:48.255Z,19.7
2018-06-25T17:16:15.666Z,19.5
2018-06-25T17:17:35.520Z,19.5
2018-06-25T17:18:57.873Z,19.6
2018-06-25T17:20:17.709Z,19.4
2018-06-25T17:21:37.594Z,19.4
2018-06-25T17:22:57.424Z,19.4
2018-06-25T17:24:29.938Z,19.4
2018-06-25T17:25:52.296Z,19.4
2018-06-25T17:27:12.169Z,19.4
2018-06-25T17:28:31.995Z,19.4
2018-06-25T17:29:56.890Z,19.4
2018-06-25T17:31:19.325Z,19.5
2018-06-25T17:32:39.196Z,19.4
2018-06-25T17:33:59.063Z,20.6
2018-06-25T17:35:21.427Z,20.6
2018-06-25T17:36:43.784Z,20.6
2018-06-25T17:38:06.194Z,20.6
2018-06-25T17:39:28.549Z,20.5
2018-06-25T17:40:53.444Z,20.5
2018-06-25T17:42:13.273Z,20.5
2018-06-25T17:43:38.167Z,20.5
2018-06-25T17:44:57.998Z,20.5
2018-06-25T17:46:20.348Z,20.5
2018-06-25T17:47:42.733Z,20.4
2018-06-25T17:49:05.132Z,20.4
2018-06-25T17:50:27.534Z,20.3
2018-06-25T17:51:52.481Z,20.3
2018-06-25T17:53:12.344Z,18.5
2018-06-25T17:54:32.259Z,20.3
2018-06-25T17:55:52.165Z,20.2
2018-06-25T17:57:19.602Z,20.2
2018-06-25T17:58:54.647Z,20.1
2018-06-25T18:00:14.495Z,20
2018-06-25T18:01:34.360Z,20
2018-06-25T18:02:59.342Z,19.9
2018-06-25T18:04:24.279Z,18.6
2018-06-25T18:05:46.635Z,18.7
2018-06-25T18:07:06.476Z,20
2018-06-25T18:08:26.302Z,20
2018-06-25T18:09:46.130Z,20
2018-06-25T18:11:08.534Z,20
2018-06-25T18:12:28.361Z,20
2018-06-25T18:13:48.178Z,20.1
2018-06-25T18:15:13.116Z,20
2018-06-25T18:16:32.973Z,20.1
2018-06-25T18:17:52.804Z,20.1
2018-06-25T18:19:12.637Z,20
2018-06-25T18:20:32.465Z,20.1
2018-06-25T18:21:52.283Z,20